createdAt,value
2018-10-11T00:03:27.256Z,99.90
2018-10-11T00:08:11.072Z,99.90
2018-10-11T00:12:54.830Z,99.90
2018-10-11T00:17:38.578Z,99.90
2018-10-11T00:22:22.612Z,99.90
2018-10-11T00:27:06.672Z,99.90
2018-10-11T00:31:50.630Z,99.90
2018-10-11T00:36:34.513Z,99.90
2018-10-11T00:41:18.352Z,99.90
2018-10-11T00:46:03.038Z,99.90
2018-10-11T00:50:46.852Z,99.90
2018-10-11T00:55:30.827Z,99.90
2018-10-11T01:00:15.488Z,99.90
2018-10-11T01:04:59.758Z,99.90
2018-10-11T01:09:43.616Z,99.90
2018-10-11T01:14:27.367Z,99.90
2018-10-11T01:19:11.147Z,99.90
2018-10-11T01:23:55.039Z,99.90
2018-10-11T01:28:38.888Z,99.90
2018-10-11T01:33:22.906Z,99.90
2018-10-11T01:38:07.164Z,99.90
2018-10-11T01:43:01.310Z,99.90
2018-10-11T01:47:45.063Z,99.90
2018-10-11T01:52:28.929Z,99.90
2018-10-11T01:57:12.849Z,99.90
2018-10-11T02:01:56.933Z,99.90
2018-10-11T02:06:40.860Z,99.90
2018-10-11T02:11:25.453Z,99.90
2018-10-11T02:16:09.142Z,99.90
2018-10-11T02:20:53.050Z,99.90
2018-10-11T02:25:37.088Z,99.90
2018-10-11T02:30:20.918Z,99.90
2018-10-11T02:35:05.846Z,99.90
2018-10-11T02:39:49.498Z,99.90
2018-10-11T02:44:33.271Z,99.90
2018-10-11T02:49:17.160Z,99.90
2018-10-11T02:54:01.160Z,99.90
2018-10-11T02:58:55.949Z,99.90
2018-10-11T03:03:39.806Z,99.90
2018-10-11T03:08:26.069Z,99.90
2018-10-11T03:13:12.077Z,99.90
2018-10-11T03:17:55.908Z,99.90
2018-10-11T03:22:39.735Z,99.90
2018-10-11T03:27:23.650Z,99.90
2018-10-11T03:32:07.684Z,99.90
2018-10-11T03:36:51.544Z,99.90
2018-10-11T03:41:36.228Z,99.90
2018-10-11T03:46:20.040Z,99.90
2018-10-11T03:51:04.305Z,99.90
2018-10-11T03:55:48.389Z,99.90
2018-10-11T04:00:32.712Z,99.90
2018-10-11T04:05:16.556Z,99.90
2018-10-11T04:10:00.474Z,99.90
2018-10-11T04:14:44.309Z,99.90
2018-10-11T04:19:28.542Z,99.90
2018-10-11T04:24:13.802Z,99.90
2018-10-11T04:28:57.548Z,99.90
2018-10-11T04:33:41.202Z,99.90
2018-10-11T04:38:25.046Z,99.90
2018-10-11T04:43:08.923Z,99.90
2018-10-11T04:47:52.782Z,99.90
2018-10-11T04:52:36.745Z,99.90
2018-10-11T04:57:20.580Z,99.90
2018-10-11T05:02:04.381Z,99.90
2018-10-11T05:06:48.460Z,99.90
2018-10-11T05:11:32.661Z,99.90
2018-10-11T05:16:17.120Z,99.90
2018-10-11T05:21:01.103Z,99.90
2018-10-11T05:25:44.992Z,99.90
2018-10-11T05:30:28.966Z,99.90
2018-10-11T05:35:12.870Z,99.90
2018-10-11T05:39:57.158Z,99.90
2018-10-11T05:44:43.273Z,99.90
2018-10-11T05:49:27.825Z,99.90
2018-10-11T05:54:11.936Z,99.90
2018-10-11T05:58:56.272Z,99.90
2018-10-11T06:03:40.203Z,99.90
2018-10-11T06:08:24.266Z,99.90
2018-10-11T06:13:09.625Z,99.90
2018-10-11T06:17:53.594Z,99.90
2018-10-11T06:28:30.360Z,99.90
2018-10-11T06:33:14.552Z,99.90
2018-10-11T06:37:59.686Z,99.90
2018-10-11T06:42:44.707Z,99.90
2018-10-11T06:47:29.055Z,99.90
2018-10-11T06:52:54.310Z,99.90
2018-10-11T06:57:44.614Z,99.90
2018-10-11T07:02:36.027Z,99.90
2018-10-11T07:07:21.683Z,99.90
2018-10-11T07:12:05.527Z,99.90
2018-10-11T07:16:49.634Z,99.90
2018-10-11T07:21:33.665Z,99.90
2018-10-11T07:26:17.875Z,99.90
2018-10-11T07:31:01.933Z,99.90
2018-10-11T07:35:45.805Z,99.90
2018-10-11T07:40:29.721Z,99.90
2018-10-11T07:45:15.968Z,99.90
2018-10-11T07:50:00.481Z,99.90
2018-10-11T07:54:44.327Z,99.90
2018-10-11T07:59:28.528Z,99.90
2018-10-11T08:04:12.462Z,99.90
2018-10-11T08:08:56.248Z,99.90
2018-10-11T08:13:40.260Z,99.40
2018-10-11T08:18:24.332Z,97.30
2018-10-11T08:23:08.227Z,95.90
2018-10-11T08:27:52.598Z,94.60
2018-10-11T08:32:36.394Z,93.20
2018-10-11T08:37:20.893Z,92.70
2018-10-11T08:42:04.812Z,91.60
2018-10-11T08:46:48.654Z,91.20
2018-10-11T08:51:32.542Z,90.50
2018-10-11T08:56:17.196Z,90.30
2018-10-11T09:01:00.982Z,89.10
2018-10-11T09:05:45.832Z,87.20
2018-10-11T09:10:38.109Z,87.30
2018-10-11T09:15:16.448Z,87.10
2018-10-11T09:20:00.517Z,83.50
2018-10-11T09:24:44.406Z,80.60
2018-10-11T09:29:28.438Z,79.40
2018-10-11T09:34:12.234Z,77.70
2018-10-11T09:38:56.137Z,73.60
2018-10-11T09:43:39.928Z,72.50
2018-10-11T09:48:27.183Z,69.10
2018-10-11T09:53:11.714Z,64.90
2018-10-11T09:57:59.286Z,64.50
2018-10-11T10:02:43.355Z,62.40
2018-10-11T10:07:27.415Z,64.30
2018-10-11T10:12:13.208Z,63.70
2018-10-11T10:17:09.988Z,64.00
2018-10-11T10:21:53.985Z,63.80
2018-10-11T10:26:42.969Z,64.60
2018-10-11T10:31:34.795Z,63.20
2018-10-11T10:36:18.906Z,64.10
2018-10-11T10:41:03.088Z,63.10
2018-10-11T10:45:46.924Z,63.20
2018-10-11T10:50:30.619Z,63.00
2018-10-11T10:55:14.388Z,62.10
2018-10-11T10:59:58.779Z,61.20
2018-10-11T11:04:42.849Z,61.50
2018-10-11T11:09:27.265Z,60.60
2018-10-11T11:14:12.195Z,60.90
2018-10-11T11:18:56.315Z,60.40
2018-10-11T11:23:40.042Z,58.90
2018-10-11T11:28:23.912Z,58.90
2018-10-11T11:33:10.986Z,59.20
2018-10-11T11:37:55.836Z,57.20
2018-10-11T11:42:39.767Z,56.40
2018-10-11T11:47:23.575Z,57.60
2018-10-11T11:52:08.107Z,56.30
2018-10-11T11:56:54.466Z,57.30
2018-10-11T12:01:38.492Z,56.70
2018-10-11T12:06:22.176Z,56.40
2018-10-11T12:11:06.315Z,56.90
2018-10-11T12:15:50.228Z,57.10
2018-10-11T12:20:35.286Z,57.80
2018-10-11T12:25:19.274Z,57.40
2018-10-11T12:30:03.034Z,57.80
2018-10-11T12:34:46.972Z,58.00
2018-10-11T12:39:31.318Z,58.20
2018-10-11T12:44:14.930Z,58.90
2018-10-11T12:48:58.610Z,59.10
2018-10-11T12:53:45.095Z,59.00
2018-10-11T12:58:26.720Z,59.90
2018-10-11T13:03:10.522Z,60.20
2018-10-11T13:07:54.253Z,60.40
2018-10-11T13:12:38.270Z,60.00
2018-10-11T13:17:22.039Z,60.60
2018-10-11T13:22:05.912Z,60.90
2018-10-11T13:26:51.561Z,60.00
2018-10-11T13:31:35.453Z,60.20
2018-10-11T13:36:19.822Z,59.00
2018-10-11T13:41:03.918Z,59.40
2018-10-11T13:45:47.970Z,60.80
2018-10-11T13:50:31.399Z,59.80
2018-10-11T13:55:15.800Z,60.10
2018-10-11T13:59:59.088Z,59.60
2018-10-11T14:04:43.906Z,58.50
2018-10-11T14:09:27.630Z,59.00
2018-10-11T14:14:11.742Z,57.70
2018-10-11T14:18:55.568Z,58.20
2018-10-11T14:23:39.502Z,57.90
2018-10-11T14:28:23.250Z,58.20
2018-10-11T14:33:07.920Z,59.40
2018-10-11T14:37:51.644Z,59.20
2018-10-11T14:42:35.518Z,59.30
2018-10-11T14:47:19.335Z,58.90
2018-10-11T14:52:03.120Z,58.20
2018-10-11T14:56:47.046Z,59.50
2018-10-11T15:01:30.844Z,58.50
2018-10-11T15:06:14.770Z,59.00
2018-10-11T15:10:58.614Z,59.10
2018-10-11T15:15:42.505Z,59.90
2018-10-11T15:20:26.209Z,59.90
2018-10-11T15:25:10.106Z,60.40
2018-10-11T15:29:54.891Z,60.90
2018-10-11T15:34:38.921Z,63.20
2018-10-11T15:39:22.834Z,63.60
2018-10-11T15:44:06.960Z,63.30
2018-10-11T15:48:52.397Z,63.80
2018-10-11T15:53:36.305Z,64.20
2018-10-11T15:58:21.227Z,65.10
2018-10-11T16:03:05.279Z,66.00
2018-10-11T16:07:49.262Z,66.50
2018-10-11T16:12:33.386Z,67.20
2018-10-11T16:17:17.269Z,67.30
2018-10-11T16:22:01.133Z,69.20
2018-10-11T16:26:45.125Z,69.70
2018-10-11T16:31:31.152Z,70.70
2018-10-11T16:36:14.945Z,71.20
2018-10-11T16:40:59.248Z,71.70
2018-10-11T16:45:43.332Z,72.60
2018-10-11T16:50:27.495Z,73.90
2018-10-11T16:55:11.447Z,73.90
2018-10-11T16:59:55.137Z,74.60
2018-10-11T17:04:39.112Z,75.00
2018-10-11T17:09:23.350Z,75.80
2018-10-11T17:14:07.294Z,76.80
2018-10-11T17:18:51.031Z,77.00
2018-10-11T17:23:34.786Z,77.20
2018-10-11T17:28:18.812Z,77.10
2018-10-11T17:33:02.496Z,77.80
2018-10-11T17:37:46.259Z,78.20
2018-10-11T17:42:30.008Z,79.10
2018-10-11T17:47:13.825Z,79.70
2018-10-11T17:51:57.654Z,80.10
2018-10-11T17:56:41.429Z,80.70
2018-10-11T18:01:25.200Z,81.60
2018-10-11T18:06:08.994Z,82.00
2018-10-11T18:10:52.875Z,82.30
2018-10-11T18:15:36.842Z,82.20
2018-10-11T18:20:20.894Z,82.30
2018-10-11T18:25:04.675Z,82.70
2018-10-11T18:29:48.783Z,83.50
2018-10-11T18:34:33.515Z,84.10
2018-10-11T18:39:17.335Z,84.80
2018-10-11T18:44:02.320Z,85.50
2018-10-11T18:48:46.159Z,86.80
2018-10-11T18:53:30.150Z,87.50
2018-10-11T18:58:14.385Z,88.70
2018-10-11T19:02:58.338Z,89.70
2018-10-11T19:07:43.717Z,90.00
2018-10-11T19:12:29.277Z,90.70
2018-10-11T19:17:13.708Z,91.00
2018-10-11T19:21:57.581Z,91.40
2018-10-11T19:26:41.623Z,91.90
2018-10-11T19:31:25.581Z,92.10
2018-10-11T19:36:09.868Z,92.40
2018-10-11T19:40:53.855Z,92.40
2018-10-11T19:45:38.696Z,92.60
2018-10-11T19:50:22.725Z,92.70
2018-10-11T19:55:07.529Z,92.90
2018-10-11T19:59:51.398Z,93.50
2018-10-11T20:04:35.343Z,93.50
2018-10-11T20:09:19.427Z,94.00
2018-10-11T20:14:03.454Z,94.30
2018-10-11T20:18:47.565Z,94.70
2018-10-11T20:23:34.331Z,95.10
2018-10-11T20:28:18.607Z,95.60
2018-10-11T20:33:03.844Z,96.20
2018-10-11T20:37:47.905Z,96.70
2018-10-11T20:42:31.955Z,97.00
2018-10-11T20:47:15.802Z,97.20
2018-10-11T20:51:59.665Z,97.40
2018-10-11T20:56:43.632Z,98.00
2018-10-11T21:01:27.517Z,98.80
2018-10-11T21:06:11.743Z,99.10
2018-10-11T21:10:56.214Z,99.60
2018-10-11T21:15:40.412Z,99.60
2018-10-11T21:20:24.893Z,99.90
2018-10-11T21:25:08.725Z,99.90
2018-10-11T21:29:54.219Z,99.90
2018-10-11T21:34:38.243Z,99.90
2018-10-11T21:39:22.422Z,99.90
2018-10-11T21:44:06.557Z,99.90
2018-10-11T21:48:50.487Z,99.90
2018-10-11T21:53:35.424Z,99.90
2018-10-11T21:58:19.513Z,99.90
2018-10-11T22:03:03.629Z,99.90
2018-10-11T22:07:50.349Z,99.90
2018-10-11T22:12:37.881Z,99.90
2018-10-11T22:17:22.222Z,99.90
2018-10-11T22:22:07.352Z,99.90
2018-10-11T22:26:51.205Z,99.90
2018-10-11T22:31:35.147Z,99.90
2018-10-11T22:36:19.827Z,99.90
2018-10-11T22:41:04.354Z,99.90
2018-10-11T22:45:48.186Z,99.90
2018-10-11T22:50:33.140Z,99.90
2018-10-11T22:55:17.729Z,99.90
2018-10-11T23:00:01.797Z,99.90
2018-10-11T23:04:45.639Z,99.90
2018-10-11T23:09:30.444Z,99.90
2018-10-11T23:14:14.204Z,99.90
2018-10-11T23:18:58.259Z,99.90
2018-10-11T23:23:43.292Z,99.90
2018-10-11T23:28:27.518Z,99.90
2018-10-11T23:33:11.292Z,99.90
2018-10-11T23:37:55.196Z,99.90
2018-10-11T23:42:39.462Z,99.90
2018-10-11T23:47:23.457Z,99.90
2018-10-11T23:52:07.636Z,99.90
2018-10-11T23:56:51.465Z,99.90
